Time;durP1;ratioP1;P1;durP2;ratioP2;P2;SDS_P1;SDS_P2;PMS_P1;PMS_P2;Temp;Humidity;BMP_temperature;BMP_pressure;BME280_temperature;BME280_humidity;BME280_pressure;Samples;Min_cycle;Max_cycle;Signal;HPM_P1;HPM_P2
2023/01/18 00:04:12;;;;;;;;;;;17.10;51.10;;;;;;10248811;28;809;-75
2023/01/18 00:09:07;;;;;;;;;;;17.10;51.00;;;;;;10248542;28;1165;-75
2023/01/18 00:14:03;;;;;;;;;;;17.10;51.00;;;;;;10249074;28;795;-75
2023/01/18 00:18:58;;;;;;;;;;;17.10;51.00;;;;;;10248040;28;1898;-75
2023/01/18 00:23:53;;;;;;;;;;;17.10;51.10;;;;;;10248456;28;873;-75
2023/01/18 00:28:49;;;;;;;;;;;17.10;51.00;;;;;;10247772;28;995;-75
2023/01/18 00:33:44;;;;;;;;;;;17.10;51.10;;;;;;10247469;28;822;-75
2023/01/18 00:38:39;;;;;;;;;;;17.00;51.00;;;;;;10247242;28;1897;-75
2023/01/18 00:43:38;;;;;;;;;;;17.00;51.10;;;;;;10247766;28;786;-75
2023/01/18 00:48:33;;;;;;;;;;;17.00;51.00;;;;;;10246926;28;778;-75
2023/01/18 00:53:28;;;;;;;;;;;17.00;51.00;;;;;;10247625;28;845;-75
2023/01/18 00:58:24;;;;;;;;;;;17.00;50.90;;;;;;10247295;28;1953;-75
2023/01/18 01:03:19;;;;;;;;;;;17.00;50.80;;;;;;10246180;28;916;-75
2023/01/18 01:08:17;;;;;;;;;;;17.00;50.90;;;;;;10246025;28;1306;-75
2023/01/18 01:28:54;;;;;;;;;;;17.00;50.80;;;;;;10245590;28;632;-75
2023/01/18 01:33:50;;;;;;;;;;;17.00;50.70;;;;;;10246428;28;889;-75
2023/01/18 01:38:45;;;;;;;;;;;17.00;50.70;;;;;;10245373;28;1961;-76
2023/01/18 01:43:40;;;;;;;;;;;17.00;50.80;;;;;;10245075;28;786;-75
2023/01/18 01:48:36;;;;;;;;;;;17.00;50.80;;;;;;10244142;28;849;-76
2023/01/18 01:53:31;;;;;;;;;;;17.00;50.70;;;;;;10244030;28;877;-75
2023/01/18 01:58:26;;;;;;;;;;;17.00;50.80;;;;;;10244427;28;1973;-75
2023/01/18 02:03:22;;;;;;;;;;;16.90;50.80;;;;;;10244957;28;953;-75
2023/01/18 02:08:21;;;;;;;;;;;17.00;50.80;;;;;;10243720;28;1332;-75
2023/01/18 02:13:16;;;;;;;;;;;16.90;50.70;;;;;;10244917;28;809;-75
2023/01/18 02:18:11;;;;;;;;;;;17.00;50.80;;;;;;10243925;28;1962;-75
2023/01/18 02:23:07;;;;;;;;;;;17.00;50.70;;;;;;10244963;28;873;-76
2023/01/18 02:28:02;;;;;;;;;;;17.00;50.70;;;;;;10243837;28;874;-75
2023/01/18 02:32:58;;;;;;;;;;;16.90;50.70;;;;;;10243906;28;881;-75
2023/01/18 02:37:53;;;;;;;;;;;17.00;50.60;;;;;;10243685;28;1902;-75
2023/01/18 02:48:02;;;;;;;;;;;17.00;50.60;;;;;;10243650;28;612;-75
2023/01/18 02:52:58;;;;;;;;;;;16.90;50.50;;;;;;10244293;28;826;-75
2023/01/18 02:57:53;;;;;;;;;;;16.90;50.60;;;;;;10243829;28;1973;-75
2023/01/18 03:02:48;;;;;;;;;;;16.90;50.50;;;;;;10243359;28;912;-75
2023/01/18 03:07:44;;;;;;;;;;;16.90;50.50;;;;;;10242619;28;1739;-75
2023/01/18 03:12:45;;;;;;;;;;;16.90;50.40;;;;;;10243064;28;1063;-75
2023/01/18 03:17:40;;;;;;;;;;;16.90;50.50;;;;;;10243763;28;1917;-75
2023/01/18 03:38:18;;;;;;;;;;;16.90;50.50;;;;;;10249800;28;1910;-76
2023/01/18 03:43:13;;;;;;;;;;;16.90;50.40;;;;;;10248914;28;877;-75
2023/01/18 03:48:09;;;;;;;;;;;16.80;50.40;;;;;;10249290;28;838;-75
2023/01/18 03:53:04;;;;;;;;;;;16.80;50.30;;;;;;10249704;28;857;-75
2023/01/18 03:57:59;;;;;;;;;;;16.90;50.30;;;;;;10248843;28;1902;-75
2023/01/18 04:02:55;;;;;;;;;;;16.80;50.30;;;;;;10248757;28;926;-75
2023/01/18 04:07:50;;;;;;;;;;;16.90;50.20;;;;;;10248725;28;1240;-75
2023/01/18 04:12:46;;;;;;;;;;;16.90;50.20;;;;;;10248410;28;885;-75
2023/01/18 04:17:41;;;;;;;;;;;16.80;50.20;;;;;;10248110;28;2001;-75
2023/01/18 04:22:36;;;;;;;;;;;16.90;50.20;;;;;;10248913;28;794;-75
2023/01/18 04:27:32;;;;;;;;;;;16.90;50.10;;;;;;10247887;28;770;-75
2023/01/18 04:32:27;;;;;;;;;;;16.90;50.10;;;;;;10248367;28;860;-75
2023/01/18 04:37:29;;;;;;;;;;;16.80;50.20;;;;;;10247026;28;1906;-75
2023/01/18 04:42:24;;;;;;;;;;;16.80;50.20;;;;;;10247088;28;909;-75
2023/01/18 04:47:20;;;;;;;;;;;16.80;50.20;;;;;;10247668;28;882;-75
2023/01/18 04:52:15;;;;;;;;;;;16.70;50.30;;;;;;10246850;28;863;-75
2023/01/18 04:57:10;;;;;;;;;;;16.70;50.20;;;;;;10246569;28;1906;-75
2023/01/18 05:02:06;;;;;;;;;;;16.80;50.20;;;;;;10246467;28;965;-75
2023/01/18 05:07:01;;;;;;;;;;;16.80;50.00;;;;;;10246613;28;1154;-75
2023/01/18 05:11:57;;;;;;;;;;;16.90;50.00;;;;;;10246075;28;872;-75
2023/01/18 05:16:52;;;;;;;;;;;16.80;50.00;;;;;;10245868;28;1913;-75
2023/01/18 05:21:47;;;;;;;;;;;16.90;49.90;;;;;;10245693;28;814;-76
2023/01/18 05:26:43;;;;;;;;;;;16.90;49.90;;;;;;10245497;28;868;-75
2023/01/18 05:31:39;;;;;;;;;;;16.90;49.90;;;;;;10245337;28;1136;-75
2023/01/18 05:36:34;;;;;;;;;;;16.90;49.80;;;;;;10245157;28;1910;-75
2023/01/18 05:41:30;;;;;;;;;;;16.90;49.80;;;;;;10245073;28;786;-75
2023/01/18 05:46:26;;;;;;;;;;;16.90;49.70;;;;;;10244862;28;1139;-75
2023/01/18 05:51:21;;;;;;;;;;;16.90;49.60;;;;;;10245879;28;857;-75
2023/01/18 05:56:17;;;;;;;;;;;16.90;49.70;;;;;;10245118;28;1975;-75
2023/01/18 06:01:12;;;;;;;;;;;16.90;49.60;;;;;;10244477;28;765;-75
2023/01/18 06:06:08;;;;;;;;;;;16.90;50.20;;;;;;10244156;28;1185;-75
2023/01/18 06:11:03;;;;;;;;;;;16.90;49.60;;;;;;10244197;28;945;-75
2023/01/18 06:15:58;;;;;;;;;;;16.90;49.60;;;;;;10244099;28;1910;-92
2023/01/18 06:20:54;;;;;;;;;;;16.90;49.50;;;;;;10244053;28;803;-92
2023/01/18 06:25:49;;;;;;;;;;;16.90;49.40;;;;;;10243911;28;952;-81
2023/01/18 06:30:46;;;;;;;;;;;16.90;49.60;;;;;;10243252;28;1126;-77
2023/01/18 06:35:42;;;;;;;;;;;16.90;49.50;;;;;;10243694;28;1886;-77
2023/01/18 06:40:37;;;;;;;;;;;16.90;49.60;;;;;;10244382;28;793;-77
2023/01/18 06:45:33;;;;;;;;;;;16.90;49.50;;;;;;10244149;28;829;-76
2023/01/18 06:50:28;;;;;;;;;;;17.00;49.60;;;;;;10243665;28;757;-76
2023/01/18 06:55:24;;;;;;;;;;;16.90;49.60;;;;;;10243317;28;1917;-76
2023/01/18 07:00:19;;;;;;;;;;;16.90;49.60;;;;;;10243329;28;869;-75
2023/01/18 07:05:15;;;;;;;;;;;16.80;49.70;;;;;;10248914;28;964;-76
2023/01/18 07:10:10;;;;;;;;;;;16.80;49.70;;;;;;10252055;28;1279;-76
2023/01/18 07:15:06;;;;;;;;;;;16.70;49.70;;;;;;10250814;28;1906;-76
2023/01/18 07:20:01;;;;;;;;;;;16.70;49.80;;;;;;10250436;28;966;-77
2023/01/18 07:24:56;;;;;;;;;;;16.70;49.80;;;;;;10250225;28;937;-75
2023/01/18 07:29:54;;;;;;;;;;;16.70;49.80;;;;;;10250594;28;817;-76
2023/01/18 07:34:49;;;;;;;;;;;16.70;49.60;;;;;;10250426;28;1902;-75
2023/01/18 07:39:44;;;;;;;;;;;16.70;49.60;;;;;;10250040;28;1052;-74
2023/01/18 07:44:40;;;;;;;;;;;16.80;49.60;;;;;;10250034;28;858;-75
2023/01/18 07:49:35;;;;;;;;;;;16.80;49.50;;;;;;10249858;28;787;-74
2023/01/18 07:54:31;;;;;;;;;;;16.80;49.40;;;;;;10249133;28;851;-75
2023/01/18 07:59:26;;;;;;;;;;;16.80;49.30;;;;;;10248868;28;1977;-85
2023/01/18 08:04:23;;;;;;;;;;;16.90;49.40;;;;;;10249377;28;764;-88
2023/01/18 08:09:19;;;;;;;;;;;16.90;49.40;;;;;;10248476;28;1272;-87
2023/01/18 08:14:14;;;;;;;;;;;16.80;49.40;;;;;;10247141;28;829;-79
2023/01/18 08:19:09;;;;;;;;;;;16.90;49.40;;;;;;10248721;28;1906;-80
2023/01/18 08:24:05;;;;;;;;;;;16.90;49.60;;;;;;10247897;28;919;-79
2023/01/18 08:29:00;;;;;;;;;;;16.90;49.40;;;;;;10272563;28;1124;-78
2023/01/18 08:33:55;;;;;;;;;;;16.80;49.30;;;;;;10288332;28;841;-80
2023/01/18 08:38:51;;;;;;;;;;;16.90;49.30;;;;;;10287996;28;1955;-76
2023/01/18 08:43:47;;;;;;;;;;;16.90;49.20;;;;;;10287961;28;796;-75
2023/01/18 08:48:43;;;;;;;;;;;16.80;49.30;;;;;;10287608;28;914;-75
2023/01/18 08:53:39;;;;;;;;;;;16.90;49.20;;;;;;10288081;28;869;-75
2023/01/18 08:58:34;;;;;;;;;;;16.80;49.10;;;;;;10287167;28;1955;-74
2023/01/18 09:03:29;;;;;;;;;;;16.80;49.30;;;;;;10287118;28;761;-76
2023/01/18 09:08:25;;;;;;;;;;;16.70;49.30;;;;;;10287154;28;1319;-76
2023/01/18 09:13:20;;;;;;;;;;;16.70;49.20;;;;;;10287267;28;793;-76
2023/01/18 09:18:16;;;;;;;;;;;16.70;49.20;;;;;;10286471;28;1914;-76
2023/01/18 09:23:11;;;;;;;;;;;16.70;49.30;;;;;;10287082;28;920;-76
2023/01/18 09:28:06;;;;;;;;;;;16.70;49.30;;;;;;10286521;28;797;-77
2023/01/18 09:33:02;;;;;;;;;;;16.70;49.30;;;;;;10286604;28;1018;-76
2023/01/18 09:37:57;;;;;;;;;;;16.70;49.20;;;;;;10285709;28;1969;-78
2023/01/18 09:42:52;;;;;;;;;;;16.80;49.50;;;;;;10284313;28;1022;-78
2023/01/18 09:47:48;;;;;;;;;;;16.80;49.40;;;;;;10284937;28;844;-78
2023/01/18 09:52:43;;;;;;;;;;;16.80;49.40;;;;;;10285166;28;1373;-80
2023/01/18 09:57:39;;;;;;;;;;;16.80;49.40;;;;;;10285551;28;1910;-79
2023/01/18 10:02:37;;;;;;;;;;;16.70;49.30;;;;;;10285555;28;871;-78
2023/01/18 10:07:33;;;;;;;;;;;16.80;49.30;;;;;;10285612;28;1165;-78
2023/01/18 10:12:28;;;;;;;;;;;17.00;49.90;;;;;;10284616;28;805;-78
2023/01/18 10:17:24;;;;;;;;;;;16.80;50.30;;;;;;10284482;28;1965;-79
2023/01/18 10:22:19;;;;;;;;;;;16.70;50.30;;;;;;10277522;28;1805;-87
2023/01/18 10:27:14;;;;;;;;;;;16.60;50.20;;;;;;10266682;28;766;-76
2023/01/18 10:32:10;;;;;;;;;;;16.70;50.30;;;;;;10254984;28;956;-77
2023/01/18 10:37:13;;;;;;;;;;;16.70;50.10;;;;;;10244358;28;1961;-73
2023/01/18 10:42:08;;;;;;;;;;;16.70;50.10;;;;;;10252114;28;817;-81
2023/01/18 10:47:04;;;;;;;;;;;16.60;49.80;;;;;;10252150;28;928;-79
2023/01/18 10:51:59;;;;;;;;;;;16.70;49.50;;;;;;10251441;28;909;-79
2023/01/18 10:56:54;;;;;;;;;;;16.80;49.50;;;;;;10250763;28;1963;-75
2023/01/18 11:01:51;;;;;;;;;;;16.80;49.60;;;;;;10250818;28;857;-83
2023/01/18 11:06:47;;;;;;;;;;;17.10;50.70;;;;;;10251029;28;1281;-82
2023/01/18 11:16:56;;;;;;;;;;;16.80;50.60;;;;;;10249861;28;1942;-85
2023/01/18 11:21:52;;;;;;;;;;;16.70;50.20;;;;;;10250105;28;803;-86
2023/01/18 11:26:48;;;;;;;;;;;16.70;50.20;;;;;;10250243;28;842;-85
2023/01/18 11:31:44;;;;;;;;;;;16.70;49.90;;;;;;10250579;28;975;-84
2023/01/18 11:36:39;;;;;;;;;;;16.80;49.90;;;;;;10250384;28;1906;-76
2023/01/18 11:41:35;;;;;;;;;;;16.90;49.80;;;;;;10249974;28;944;-77
2023/01/18 11:46:30;;;;;;;;;;;17.20;49.80;;;;;;10249470;28;916;-78
2023/01/18 11:51:25;;;;;;;;;;;17.30;50.00;;;;;;10249675;28;877;-77
2023/01/18 11:56:21;;;;;;;;;;;17.30;50.10;;;;;;10248497;28;1890;-76
2023/01/18 12:01:20;;;;;;;;;;;17.30;50.10;;;;;;10258590;28;1094;-79
2023/01/18 12:06:15;;;;;;;;;;;17.20;50.50;;;;;;10289113;28;1560;-77
2023/01/18 12:11:11;;;;;;;;;;;17.20;50.90;;;;;;10289058;28;768;-77
2023/01/18 12:16:07;;;;;;;;;;;17.20;51.60;;;;;;10288829;28;1996;-77
2023/01/18 12:21:02;;;;;;;;;;;17.30;51.20;;;;;;10288665;28;820;-79
2023/01/18 12:25:57;;;;;;;;;;;17.30;51.00;;;;;;10288779;28;901;-71
2023/01/18 12:30:53;;;;;;;;;;;17.30;51.20;;;;;;10288288;28;929;-78
2023/01/18 12:35:49;;;;;;;;;;;17.20;51.20;;;;;;10288101;28;1901;-82
2023/01/18 12:40:44;;;;;;;;;;;17.00;51.40;;;;;;10287920;28;981;-78
2023/01/18 12:45:39;;;;;;;;;;;17.00;51.20;;;;;;10287743;28;863;-81
2023/01/18 12:50:38;;;;;;;;;;;17.00;51.10;;;;;;10287547;28;886;-81
2023/01/18 12:55:33;;;;;;;;;;;16.90;50.80;;;;;;10287377;28;1977;-78
2023/01/18 13:00:30;;;;;;;;;;;16.90;50.60;;;;;;10286866;28;830;-82
2023/01/18 13:05:32;;;;;;;;;;;17.00;50.50;;;;;;10287449;28;827;-82
2023/01/18 13:10:30;;;;;;;;;;;17.00;50.50;;;;;;10285103;28;965;-82
2023/01/18 13:15:25;;;;;;;;;;;17.10;50.30;;;;;;10261801;28;1895;-81
2023/01/18 13:20:21;;;;;;;;;;;17.10;50.20;;;;;;10245886;28;973;-83
2023/01/18 13:25:20;;;;;;;;;;;17.10;50.00;;;;;;10245612;28;967;-82
2023/01/18 13:30:15;;;;;;;;;;;17.20;49.70;;;;;;10245383;28;1142;-84
2023/01/18 13:35:11;;;;;;;;;;;17.30;49.50;;;;;;10244592;28;1914;-73
2023/01/18 13:40:06;;;;;;;;;;;17.50;49.70;;;;;;10245776;28;986;-73
2023/01/18 13:45:01;;;;;;;;;;;17.70;49.50;;;;;;10244971;28;928;-73
2023/01/18 13:49:57;;;;;;;;;;;17.90;49.40;;;;;;10244885;28;829;-73
2023/01/18 13:54:52;;;;;;;;;;;17.90;49.40;;;;;;10244682;28;898;-73
2023/01/18 13:59:48;;;;;;;;;;;17.90;49.40;;;;;;10244421;28;1894;-74
2023/01/18 14:04:43;;;;;;;;;;;18.00;49.30;;;;;;10244956;28;880;-72
2023/01/18 14:09:38;;;;;;;;;;;18.00;49.20;;;;;;10244238;28;1169;-74
2023/01/18 14:14:34;;;;;;;;;;;17.90;49.40;;;;;;10243899;28;838;-73
2023/01/18 14:19:29;;;;;;;;;;;17.80;49.20;;;;;;10243767;28;1965;-83
2023/01/18 14:24:25;;;;;;;;;;;17.70;49.80;;;;;;10243997;28;814;-85
2023/01/18 14:29:21;;;;;;;;;;;17.40;50.00;;;;;;10243859;28;778;-84
2023/01/18 14:34:16;;;;;;;;;;;17.40;50.00;;;;;;10244330;28;880;-84
2023/01/18 14:39:11;;;;;;;;;;;17.30;49.80;;;;;;10244181;28;1902;-79
2023/01/18 14:44:07;;;;;;;;;;;17.30;49.90;;;;;;10244027;28;802;-80
2023/01/18 14:49:02;;;;;;;;;;;17.50;49.80;;;;;;10243335;28;782;-79
2023/01/18 14:53:59;;;;;;;;;;;17.60;49.60;;;;;;10243219;28;952;-79
2023/01/18 14:58:54;;;;;;;;;;;17.60;49.50;;;;;;10243117;28;1914;-80
2023/01/18 15:03:50;;;;;;;;;;;17.60;49.30;;;;;;10242942;28;1251;-79
2023/01/18 15:08:45;;;;;;;;;;;17.50;49.50;;;;;;10243793;28;1347;-78
2023/01/18 15:13:40;;;;;;;;;;;17.50;49.60;;;;;;10242998;28;833;-84
2023/01/18 15:18:36;;;;;;;;;;;17.50;49.80;;;;;;10243536;28;1914;-80
2023/01/18 15:23:31;;;;;;;;;;;17.30;50.00;;;;;;10244561;28;897;-82
2023/01/18 15:28:26;;;;;;;;;;;17.20;50.30;;;;;;10249663;28;830;-82
2023/01/18 15:33:22;;;;;;;;;;;17.20;50.20;;;;;;10250002;28;870;-82
2023/01/18 15:38:17;;;;;;;;;;;17.10;50.10;;;;;;10250522;28;1957;-82
2023/01/18 15:43:12;;;;;;;;;;;17.10;50.00;;;;;;10249698;28;910;-82
2023/01/18 15:48:08;;;;;;;;;;;17.10;50.00;;;;;;10249486;28;935;-82
2023/01/18 15:53:12;;;;;;;;;;;17.10;49.90;;;;;;10249746;28;772;-82
2023/01/18 15:58:08;;;;;;;;;;;17.00;49.90;;;;;;10249429;28;1965;-82
2023/01/18 16:03:03;;;;;;;;;;;16.90;50.00;;;;;;10248598;28;937;-82
2023/01/18 16:07:59;;;;;;;;;;;16.90;49.90;;;;;;10248421;28;1149;-82
2023/01/18 16:12:54;;;;;;;;;;;16.90;50.00;;;;;;10248559;28;783;-82
2023/01/18 16:17:50;;;;;;;;;;;16.90;49.90;;;;;;10248359;28;1922;-83
2023/01/18 16:22:47;;;;;;;;;;;16.90;49.90;;;;;;10248164;28;958;-82
2023/01/18 16:27:42;;;;;;;;;;;16.90;49.80;;;;;;10247951;28;1000;-82
2023/01/18 16:32:37;;;;;;;;;;;16.90;49.80;;;;;;10248242;28;1259;-82
2023/01/18 16:37:33;;;;;;;;;;;16.90;49.70;;;;;;10246669;28;1965;-82
2023/01/18 16:42:28;;;;;;;;;;;16.90;49.80;;;;;;10248004;28;873;-82
2023/01/18 16:47:24;;;;;;;;;;;16.90;49.70;;;;;;10247207;28;779;-79
2023/01/18 16:52:20;;;;;;;;;;;16.90;49.70;;;;;;10247265;28;873;-76
2023/01/18 16:57:15;;;;;;;;;;;17.30;51.00;;;;;;10246738;28;1958;-76
2023/01/18 17:02:11;;;;;;;;;;;17.50;54.10;;;;;;10246999;28;999;-74
2023/01/18 17:07:06;;;;;;;;;;;17.60;53.10;;;;;;10246347;28;1177;-75
2023/01/18 17:12:01;;;;;;;;;;;17.60;53.00;;;;;;10246300;28;868;-76
2023/01/18 17:16:57;;;;;;;;;;;17.50;51.30;;;;;;10253110;28;1975;-75
2023/01/18 17:21:52;;;;;;;;;;;17.60;51.60;;;;;;10284255;28;956;-76
2023/01/18 17:26:48;;;;;;;;;;;17.60;51.10;;;;;;10286982;28;924;-76
2023/01/18 17:31:44;;;;;;;;;;;17.60;51.10;;;;;;10286366;28;826;-76
2023/01/18 17:36:39;;;;;;;;;;;17.60;51.10;;;;;;10286842;28;1909;-73
2023/01/18 17:41:35;;;;;;;;;;;17.60;50.90;;;;;;10285848;28;861;-73
2023/01/18 17:46:30;;;;;;;;;;;17.60;50.70;;;;;;10285380;28;834;-73
2023/01/18 17:51:25;;;;;;;;;;;17.60;50.50;;;;;;10286927;28;879;-73
2023/01/18 17:56:21;;;;;;;;;;;17.50;50.10;;;;;;10286417;28;1948;-79
2023/01/18 18:01:16;;;;;;;;;;;17.60;50.10;;;;;;10285244;28;779;-81
2023/01/18 18:06:11;;;;;;;;;;;17.40;50.20;;;;;;10285579;28;1149;-83
2023/01/18 18:11:07;;;;;;;;;;;17.30;50.50;;;;;;10285556;28;943;-84
2023/01/18 18:16:02;;;;;;;;;;;17.20;50.50;;;;;;10285379;28;1986;-81
2023/01/18 18:20:58;;;;;;;;;;;17.20;50.50;;;;;;10285289;28;846;-77
2023/01/18 18:25:53;;;;;;;;;;;17.20;50.40;;;;;;10250756;28;943;-80
2023/01/18 18:30:50;;;;;;;;;;;17.20;50.20;;;;;;10242971;28;1246;-80
2023/01/18 18:35:45;;;;;;;;;;;17.10;50.20;;;;;;10244315;28;1902;-79
2023/01/18 18:40:40;;;;;;;;;;;17.10;50.00;;;;;;10242968;28;865;-74
2023/01/18 18:45:36;;;;;;;;;;;15.60;42.40;;;;;;10244307;28;870;-76
2023/01/18 18:50:31;;;;;;;;;;;14.40;40.00;;;;;;10243611;28;977;-71
2023/01/18 18:55:26;;;;;;;;;;;13.70;43.20;;;;;;10242048;28;1898;-79
2023/01/18 19:00:23;;;;;;;;;;;15.40;44.60;;;;;;10285504;28;1127;-80
2023/01/18 19:05:19;;;;;;;;;;;16.10;44.00;;;;;;10291639;28;907;-80
2023/01/18 19:10:14;;;;;;;;;;;16.30;44.00;;;;;;10290610;28;1310;-80
2023/01/18 19:15:10;;;;;;;;;;;16.50;44.10;;;;;;10291131;28;1957;-80
2023/01/18 19:20:08;;;;;;;;;;;16.50;44.30;;;;;;10291078;28;803;-78
2023/01/18 19:25:04;;;;;;;;;;;16.60;44.60;;;;;;10290828;28;997;-82
2023/01/18 19:29:59;;;;;;;;;;;16.60;44.70;;;;;;10290665;28;843;-81
2023/01/18 19:34:54;;;;;;;;;;;16.60;44.90;;;;;;10290755;28;773;-82
2023/01/18 19:39:50;;;;;;;;;;;16.60;45.10;;;;;;10291465;28;1965;-82
2023/01/18 19:44:45;;;;;;;;;;;16.60;45.20;;;;;;10290260;28;797;-80
2023/01/18 19:49:42;;;;;;;;;;;16.70;45.30;;;;;;10290168;28;782;-81
2023/01/18 19:54:37;;;;;;;;;;;16.70;45.50;;;;;;10289976;28;769;-75
2023/01/18 19:59:32;;;;;;;;;;;16.70;45.50;;;;;;10289727;28;1902;-76
2023/01/18 20:04:28;;;;;;;;;;;17.10;45.80;;;;;;10290190;28;860;-73
2023/01/18 20:09:23;;;;;;;;;;;17.20;46.20;;;;;;10289461;28;1236;-82
2023/01/18 20:14:19;;;;;;;;;;;17.20;46.40;;;;;;10289166;28;931;-81
2023/01/18 20:19:14;;;;;;;;;;;17.00;46.50;;;;;;10288699;28;1902;-82
2023/01/18 20:24:09;;;;;;;;;;;16.90;46.50;;;;;;10288246;28;844;-81
2023/01/18 20:29:05;;;;;;;;;;;16.90;46.40;;;;;;10289326;28;837;-81
2023/01/18 20:34:01;;;;;;;;;;;16.90;46.30;;;;;;10261116;28;1109;-81
2023/01/18 20:38:57;;;;;;;;;;;16.90;46.20;;;;;;10247249;28;1956;-81
2023/01/18 20:43:52;;;;;;;;;;;16.80;46.20;;;;;;10247419;28;913;-81
2023/01/18 20:48:48;;;;;;;;;;;16.80;46.30;;;;;;10247128;28;762;-82
2023/01/18 20:53:44;;;;;;;;;;;16.70;46.30;;;;;;10246856;28;939;-82
2023/01/18 20:58:39;;;;;;;;;;;16.70;46.30;;;;;;10246543;28;1902;-83
2023/01/18 21:03:34;;;;;;;;;;;16.70;46.30;;;;;;10246369;28;789;-82
2023/01/18 21:08:30;;;;;;;;;;;16.70;46.10;;;;;;10246613;28;1141;-82
2023/01/18 21:13:25;;;;;;;;;;;16.70;46.10;;;;;;10246771;28;777;-82
2023/01/18 21:18:20;;;;;;;;;;;16.70;46.50;;;;;;10246450;28;1963;-83
2023/01/18 21:23:16;;;;;;;;;;;16.70;46.20;;;;;;10245069;28;783;-83
2023/01/18 21:28:11;;;;;;;;;;;16.70;45.70;;;;;;10245759;28;774;-83
2023/01/18 21:33:07;;;;;;;;;;;16.70;45.70;;;;;;10245954;28;853;-83
2023/01/18 21:38:03;;;;;;;;;;;16.60;45.70;;;;;;10245279;28;1898;-83
2023/01/18 21:48:13;;;;;;;;;;;16.70;46.00;;;;;;10244579;28;679;-83
2023/01/18 22:03:36;;;;;;;;;;;16.60;45.80;;;;;;10243731;28;628;-77
2023/01/18 22:08:31;;;;;;;;;;;16.60;46.30;;;;;;10243156;28;1257;-77
2023/01/18 22:13:27;;;;;;;;;;;16.60;46.40;;;;;;10245003;28;874;-77
2023/01/18 22:18:22;;;;;;;;;;;16.70;45.00;;;;;;10244765;28;1906;-80
2023/01/18 22:23:18;;;;;;;;;;;16.60;45.60;;;;;;10244657;28;846;-79
2023/01/18 22:28:13;;;;;;;;;;;16.60;45.90;;;;;;10244099;28;853;-74
2023/01/18 22:33:08;;;;;;;;;;;16.60;45.60;;;;;;10245357;28;807;-84
2023/01/18 22:38:04;;;;;;;;;;;16.60;45.90;;;;;;10252995;28;1902;-75
2023/01/18 22:43:00;;;;;;;;;;;16.50;45.70;;;;;;10252579;28;874;-74
2023/01/18 22:47:55;;;;;;;;;;;16.50;46.00;;;;;;10251834;28;787;-75
2023/01/18 22:52:50;;;;;;;;;;;16.60;45.50;;;;;;10251929;28;810;-74
2023/01/18 22:57:46;;;;;;;;;;;16.50;45.70;;;;;;10251635;28;1906;-75
2023/01/18 23:02:41;;;;;;;;;;;16.50;45.80;;;;;;10251953;28;896;-75
2023/01/18 23:07:37;;;;;;;;;;;16.50;45.80;;;;;;10251514;28;1181;-74
2023/01/18 23:12:32;;;;;;;;;;;16.50;45.90;;;;;;10251008;28;969;-75
2023/01/18 23:17:37;;;;;;;;;;;16.50;45.50;;;;;;10251292;28;1966;-75
2023/01/18 23:22:32;;;;;;;;;;;16.50;45.70;;;;;;10251227;28;1045;-75
2023/01/18 23:27:30;;;;;;;;;;;16.50;45.80;;;;;;10250422;28;919;-75
2023/01/18 23:32:29;;;;;;;;;;;16.50;45.80;;;;;;10250375;28;948;-74
2023/01/18 23:37:24;;;;;;;;;;;16.50;45.40;;;;;;10249887;28;1902;-75
2023/01/18 23:58:02;;;;;;;;;;;16.50;45.70;;;;;;10249749;28;1972;-74
